Duluth, Kansas
Current Conditions -  °F | °C
As of 11:52 AM on Thursday 23 Oct 2014 (Local Time) from KMHK Reporting Station
Few Clouds Few Clouds  
Wind Chill: 69°   Ceiling: Unl
Heat Index: 69°   Visibility: 10mi
Dew Point: 62°   Wind: 9mph
Humidity: 78%   Direction: 240°WSW
Pressure: 30.09"   Gusts: NA
Location:  39.4299°N, 96.1804°W
Report Text: KMHK 231652Z 24008KT 10SM FEW013 21/17 A3009 RMK AO2 SLP186 T02060167
Loading
Personal Weather Stations






























Interactive Weather Map
Tropical Storm Tracking
New forecast layout! Learn more

10-Day Weather Forecast

Advertisements
Track Severe Weather on mobile